Time;durP1;ratioP1;P1;durP2;ratioP2;P2;SDS_P1;SDS_P2;PMS_P1;PMS_P2;Temp;Humidity;BMP_temperature;BMP_pressure;BME280_temperature;BME280_humidity;BME280_pressure;Samples;Min_cycle;Max_cycle;Signal;HPM_P1;HPM_P2
2023/04/03 00:00:26;;;;;;;14.45;8.60;;;;;;;17.75;45.14;103175.56;5043759;28;20340;-18
2023/04/03 00:02:52;;;;;;;14.95;9.00;;;;;;;17.73;45.72;103182.84;5051479;28;20052;-18
2023/04/03 00:05:19;;;;;;;14.05;8.48;;;;;;;17.72;45.35;103189.13;5049269;28;20108;-18
2023/04/03 00:07:46;;;;;;;13.80;8.35;;;;;;;17.70;45.49;103185.69;5048697;28;20080;-18
2023/04/03 00:10:13;;;;;;;15.30;8.13;;;;;;;17.69;45.35;103184.84;5044557;28;20068;-18
2023/04/03 00:12:40;;;;;;;15.50;9.05;;;;;;;17.68;45.16;103185.78;5049606;28;20048;-19
2023/04/03 00:15:07;;;;;;;13.85;8.15;;;;;;;17.65;45.53;103185.97;5041019;28;20432;-18
2023/04/03 00:17:35;;;;;;;13.35;7.95;;;;;;;17.64;45.41;103188.72;5045577;28;20128;-18
2023/04/03 00:20:03;;;;;;;11.93;7.50;;;;;;;17.62;45.14;103180.78;5044737;28;20416;-18
2023/04/03 00:22:30;;;;;;;12.73;8.13;;;;;;;17.61;45.59;103188.91;5045894;28;20049;-18
2023/04/03 00:24:56;;;;;;;13.35;7.80;;;;;;;17.60;45.83;103192.56;5045129;28;20059;-18
2023/04/03 00:27:23;;;;;;;14.18;8.13;;;;;;;17.57;45.47;103190.06;5050066;28;20053;-18
2023/04/03 00:29:49;;;;;;;12.95;7.90;;;;;;;17.57;45.92;103192.75;5048514;28;20060;-18
2023/04/03 00:32:16;;;;;;;12.75;7.43;;;;;;;17.56;45.66;103194.56;5050032;28;20053;-18
2023/04/03 00:34:43;;;;;;;12.30;7.50;;;;;;;17.54;45.73;103191.13;5050999;28;20099;-18
2023/04/03 00:37:10;;;;;;;11.13;6.68;;;;;;;17.52;45.87;103182.28;5047420;28;20053;-18
2023/04/03 00:39:36;;;;;;;10.63;6.65;;;;;;;17.52;45.63;103187.66;5047636;28;20456;-18
2023/04/03 00:42:03;;;;;;;11.35;6.55;;;;;;;17.50;45.93;103185.09;5048461;28;20052;-18
2023/04/03 00:44:35;;;;;;;11.20;7.13;;;;;;;17.49;45.63;103193.22;5048478;28;20056;-18
2023/04/03 00:47:05;;;;;;;10.25;6.50;;;;;;;17.47;46.10;103189.78;5049197;28;20049;-18
2023/04/03 00:49:31;;;;;;;9.25;6.10;;;;;;;17.46;45.62;103188.91;5050624;28;20056;-19
2023/04/03 00:51:58;;;;;;;11.00;6.70;;;;;;;17.45;46.03;103194.38;5049322;28;20429;-19
2023/04/03 00:54:26;;;;;;;9.55;5.78;;;;;;;17.43;45.61;103197.13;5045807;28;20586;-18
2023/04/03 00:56:55;;;;;;;10.55;5.95;;;;;;;17.43;45.54;103202.50;5047400;28;20060;-18
2023/04/03 00:59:26;;;;;;;8.40;5.55;;;;;;;17.41;45.66;103207.09;5043317;28;20372;-18
2023/04/03 01:01:55;;;;;;;10.00;6.15;;;;;;;17.40;45.71;103209.84;5041920;28;20099;-18
2023/04/03 01:04:28;;;;;;;9.13;6.10;;;;;;;17.38;46.18;103206.41;5045624;28;20444;-18
2023/04/03 01:06:57;;;;;;;9.00;5.82;;;;;;;17.37;46.01;103216.28;5049930;28;20049;-18
2023/04/03 01:09:24;;;;;;;8.68;5.72;;;;;;;17.36;45.94;103206.50;5045526;28;20320;-18
2023/04/03 01:11:51;;;;;;;9.82;5.63;;;;;;;17.35;46.14;103211.94;5048629;28;20100;-18
2023/04/03 01:14:17;;;;;;;8.85;5.57;;;;;;;17.34;45.47;103210.22;5049396;28;20348;-18
2023/04/03 01:16:53;;;;;;;9.60;5.60;;;;;;;17.30;46.08;103209.56;5045692;28;20053;-18
2023/04/03 01:19:22;;;;;;;8.25;5.10;;;;;;;17.31;46.03;103215.75;5043042;28;20512;-18
2023/04/03 01:22:01;;;;;;;9.15;5.60;;;;;;;17.28;46.35;103220.34;5050296;28;20132;-18
2023/04/03 01:24:38;;;;;;;7.95;5.00;;;;;;;17.26;45.82;103208.88;5049475;28;20401;-18
2023/04/03 01:27:07;;;;;;;9.13;5.88;;;;;;;17.25;45.77;103209.81;5047839;28;20128;-18
2023/04/03 01:29:34;;;;;;;7.35;4.72;;;;;;;17.23;45.44;103208.19;5050962;28;20323;-18
2023/04/03 01:32:02;;;;;;;8.52;4.85;;;;;;;17.20;46.29;103203.84;5051752;28;20148;-18
2023/04/03 01:34:29;;;;;;;8.75;4.97;;;;;;;17.20;45.84;103209.22;5052311;28;20448;-18
2023/04/03 01:36:56;;;;;;;7.20;4.53;;;;;;;17.17;45.54;103204.06;5051254;28;20345;-18
2023/04/03 01:39:23;;;;;;;8.60;4.88;;;;;;;17.17;45.71;103204.06;5050201;28;20041;-18
2023/04/03 01:41:50;;;;;;;6.43;4.30;;;;;;;17.16;45.60;103204.13;5051732;28;20045;-18
2023/04/03 01:44:16;;;;;;;6.88;4.30;;;;;;;17.15;46.10;103203.25;5051301;28;20063;-18
2023/04/03 01:46:43;;;;;;;7.50;4.60;;;;;;;17.14;45.55;103209.59;5050258;28;20837;-18
2023/04/03 01:49:10;;;;;;;6.78;4.32;;;;;;;17.12;45.53;103202.59;5052977;28;20131;-18
2023/04/03 01:51:36;;;;;;;7.05;4.38;;;;;;;17.12;45.72;103203.44;5049063;28;20052;-18
2023/04/03 01:54:03;;;;;;;6.97;4.22;;;;;;;17.11;46.01;103209.75;5050070;28;20057;-18
2023/04/03 01:56:30;;;;;;;6.13;3.97;;;;;;;17.08;45.50;103209.94;5048742;28;20136;-18
2023/04/03 01:58:57;;;;;;;6.18;4.05;;;;;;;17.08;46.09;103209.94;5046107;28;20051;-18
2023/04/03 02:01:23;;;;;;;6.65;4.13;;;;;;;17.06;45.52;103209.19;5044941;28;20049;-18
2023/04/03 02:03:50;;;;;;;5.53;3.50;;;;;;;17.05;46.34;103210.13;5049887;28;20186;-18
2023/04/03 02:06:16;;;;;;;6.57;3.80;;;;;;;17.05;45.69;103204.78;5044865;28;20045;-18
2023/04/03 02:08:43;;;;;;;6.32;3.85;;;;;;;17.02;45.70;103212.97;5047620;28;20044;-18
2023/04/03 02:11:10;;;;;;;6.43;3.90;;;;;;;17.01;46.22;103214.81;5049726;28;20106;-18
2023/04/03 02:13:36;;;;;;;6.00;3.92;;;;;;;17.00;46.12;103220.22;5050054;28;20049;-18
2023/04/03 02:16:10;;;;;;;6.00;3.42;;;;;;;16.99;46.30;103218.50;5045602;28;20053;-18
2023/04/03 02:18:37;;;;;;;6.72;4.03;;;;;;;16.98;45.90;103217.66;5047379;28;20045;-18
2023/04/03 02:21:04;;;;;;;6.60;3.67;;;;;;;16.97;46.21;103229.34;5045057;28;20398;-18
2023/04/03 02:23:30;;;;;;;5.68;3.25;;;;;;;16.96;45.96;103230.25;5049693;28;20428;-18
2023/04/03 02:26:12;;;;;;;4.60;3.40;;;;;;;16.94;45.61;103224.13;5044668;28;20045;-18
2023/04/03 02:28:39;;;;;;;5.88;3.55;;;;;;;16.94;46.12;103217.94;5049517;28;20055;-19
2023/04/03 02:31:06;;;;;;;5.05;3.55;;;;;;;16.93;45.52;103222.41;5047094;28;20060;-18
2023/04/03 02:33:36;;;;;;;6.25;3.50;;;;;;;16.91;45.60;103218.09;5049388;28;20052;-18
2023/04/03 02:36:05;;;;;;;6.00;3.28;;;;;;;16.91;46.16;103223.44;5044160;28;20051;-19
2023/04/03 02:38:32;;;;;;;5.82;3.50;;;;;;;16.89;45.92;103220.88;5045067;28;20045;-18
2023/04/03 02:41:01;;;;;;;5.45;2.85;;;;;;;16.88;46.43;103224.47;5045659;28;20057;-18
2023/04/03 02:43:27;;;;;;;4.75;3.17;;;;;;;16.87;46.63;103230.78;5046813;28;20055;-18
2023/04/03 02:45:54;;;;;;;6.18;3.20;;;;;;;16.86;46.47;103228.22;5044570;28;20045;-17
2023/04/03 02:48:22;;;;;;;4.50;3.08;;;;;;;16.85;45.85;103234.53;5049010;28;20509;-18
2023/04/03 02:50:48;;;;;;;6.35;3.50;;;;;;;16.84;46.80;103233.63;5046556;28;20445;-18
2023/04/03 02:53:15;;;;;;;6.18;3.30;;;;;;;16.82;46.14;103224.84;5046093;28;20124;-18
2023/04/03 02:55:42;;;;;;;3.53;2.60;;;;;;;16.81;46.47;103233.84;5042688;28;20429;-19
2023/04/03 02:58:08;;;;;;;4.60;2.70;;;;;;;16.81;45.88;103235.66;5045413;28;20067;-19
2023/04/03 03:00:35;;;;;;;4.55;2.70;;;;;;;16.78;46.02;103234.88;5040016;28;20053;-18
2023/04/03 03:03:02;;;;;;;4.40;2.75;;;;;;;16.78;46.48;103244.72;5044428;28;20051;-19
2023/04/03 03:05:29;;;;;;;4.65;3.05;;;;;;;16.77;45.81;103251.91;5041990;28;20387;-20
2023/04/03 03:07:56;;;;;;;6.40;3.35;;;;;;;16.76;46.12;103254.63;5047295;28;20460;-19
2023/04/03 03:10:23;;;;;;;5.45;2.83;;;;;;;16.75;46.53;103261.81;5045107;28;20068;-19
2023/04/03 03:12:50;;;;;;;5.25;2.70;;;;;;;16.75;46.69;103264.50;5046169;28;20052;-19
2023/04/03 03:15:17;;;;;;;4.47;2.53;;;;;;;16.74;46.80;103262.78;5044846;28;20057;-19
2023/04/03 03:17:43;;;;;;;4.65;2.63;;;;;;;16.72;46.02;103261.97;5048395;28;20130;-18
2023/04/03 03:20:11;;;;;;;4.57;2.70;;;;;;;16.72;46.74;103256.63;5045491;28;20061;-19
2023/04/03 03:22:37;;;;;;;3.60;2.35;;;;;;;16.71;46.20;103259.38;5044325;28;20050;-19
2023/04/03 03:25:04;;;;;;;5.25;2.88;;;;;;;16.71;46.63;103262.03;5047949;28;20633;-19
2023/04/03 03:27:31;;;;;;;3.67;2.15;;;;;;;16.69;46.33;103262.13;5042368;28;20045;-20
2023/04/03 03:29:57;;;;;;;4.55;2.80;;;;;;;16.70;46.56;103268.34;5043143;28;20045;-19
2023/04/03 03:32:24;;;;;;;3.72;2.40;;;;;;;16.68;45.85;103265.78;5049291;28;20060;-25
2023/04/03 03:34:51;;;;;;;4.03;2.38;;;;;;;16.66;46.26;103262.31;5043657;28;20091;-20
2023/04/03 03:37:17;;;;;;;4.28;2.47;;;;;;;16.63;46.44;103257.13;5048515;28;20514;-20
2023/04/03 03:39:44;;;;;;;3.80;2.28;;;;;;;16.63;47.23;103257.13;5041030;28;20056;-19
2023/04/03 03:42:11;;;;;;;4.25;2.60;;;;;;;16.63;46.68;103258.94;5045188;28;20061;-18
2023/04/03 03:44:37;;;;;;;4.10;2.45;;;;;;;16.61;45.85;103261.72;5047209;28;20052;-19
2023/04/03 03:47:05;;;;;;;3.35;2.10;;;;;;;16.61;46.49;103258.16;5046350;28;20049;-19
2023/04/03 03:49:32;;;;;;;2.65;1.80;;;;;;;16.60;46.26;103265.31;5046867;28;20044;-20
2023/04/03 03:51:59;;;;;;;4.03;2.15;;;;;;;16.59;46.91;103265.41;5045528;28;20052;-19
2023/04/03 03:54:25;;;;;;;4.43;2.08;;;;;;;16.56;45.92;103263.75;5044662;28;20048;-19
2023/04/03 03:56:52;;;;;;;3.40;1.80;;;;;;;16.58;46.74;103274.41;5045063;28;20044;-20
2023/04/03 03:59:18;;;;;;;3.22;2.20;;;;;;;16.57;46.27;103267.31;5044314;28;20415;-19
2023/04/03 04:01:45;;;;;;;4.10;2.10;;;;;;;16.66;47.08;103273.00;5041253;28;20060;-19
2023/04/03 04:04:11;;;;;;;4.05;2.42;;;;;;;16.76;46.03;103271.59;5044072;28;20618;-19
2023/04/03 04:06:38;;;;;;;2.80;2.08;;;;;;;16.86;45.99;103265.72;5043272;28;20040;-20
2023/04/03 04:09:04;;;;;;;2.95;2.00;;;;;;;16.95;46.43;103252.66;5049268;28;20044;-19
2023/04/03 04:11:33;;;;;;;4.22;2.40;;;;;;;17.04;46.04;103256.63;5049098;28;20045;-19
2023/04/03 04:13:59;;;;;;;2.85;1.83;;;;;;;17.11;45.77;103263.34;5045539;28;20053;-20
2023/04/03 04:16:26;;;;;;;3.63;1.98;;;;;;;17.15;45.73;103270.25;5039076;28;20059;-19
2023/04/03 04:18:52;;;;;;;2.83;1.77;;;;;;;17.21;44.63;103271.75;5045995;28;20053;-20
2023/04/03 04:21:19;;;;;;;3.10;2.15;;;;;;;17.25;45.47;103278.66;5048197;28;20168;-19
2023/04/03 04:23:45;;;;;;;3.92;1.90;;;;;;;17.27;45.40;103274.06;5049606;28;20137;-20
2023/04/03 04:26:12;;;;;;;2.88;1.98;;;;;;;17.31;45.39;103275.59;5050418;28;20404;-20
2023/04/03 04:28:38;;;;;;;3.63;1.98;;;;;;;17.35;44.75;103276.28;5050110;28;20052;-19
2023/04/03 04:31:05;;;;;;;3.10;1.77;;;;;;;17.37;44.71;103267.22;5047914;28;20072;-19
2023/04/03 04:33:32;;;;;;;5.68;1.90;;;;;;;17.39;44.58;103273.34;5050957;28;20115;-19
2023/04/03 04:35:58;;;;;;;3.40;2.03;;;;;;;17.40;44.69;103280.41;5049071;28;20060;-19
2023/04/03 04:38:25;;;;;;;4.50;1.60;;;;;;;17.40;44.52;103272.38;5050503;28;20057;-19
2023/04/03 04:40:51;;;;;;;2.90;1.80;;;;;;;17.41;44.21;103275.94;5052745;28;20052;-20
2023/04/03 04:43:18;;;;;;;2.75;1.98;;;;;;;17.40;44.42;103271.50;5052227;28;20049;-19
2023/04/03 04:45:44;;;;;;;3.50;2.05;;;;;;;17.39;44.69;103277.84;5052010;28;20132;-19
2023/04/03 04:48:11;;;;;;;4.50;2.20;;;;;;;17.33;44.97;103278.22;5053949;28;20059;-19
2023/04/03 04:50:38;;;;;;;3.05;2.00;;;;;;;17.28;44.42;103278.44;5052891;28;20122;-19
2023/04/03 04:53:04;;;;;;;3.28;1.92;;;;;;;17.21;44.37;103277.09;5054781;28;20045;-18
2023/04/03 04:55:31;;;;;;;3.88;2.10;;;;;;;17.12;44.50;103277.59;5054369;28;20348;-18
2023/04/03 04:57:58;;;;;;;4.28;2.10;;;;;;;17.01;44.82;103273.75;5051764;28;20049;-19
2023/04/03 05:00:24;;;;;;;5.47;2.25;;;;;;;16.93;44.79;103286.72;5051099;28;20843;-18
2023/04/03 05:02:51;;;;;;;4.70;2.33;;;;;;;16.85;44.98;103285.44;5053176;28;20060;-20
2023/04/03 05:05:17;;;;;;;4.03;2.03;;;;;;;16.75;45.76;103288.59;5051920;28;20063;-19
2023/04/03 05:07:44;;;;;;;3.00;1.85;;;;;;;16.66;45.50;103290.91;5053338;28;20084;-19
2023/04/03 05:10:11;;;;;;;2.95;2.15;;;;;;;16.58;45.82;103295.81;5053112;28;20052;-19
2023/04/03 05:12:37;;;;;;;3.53;2.42;;;;;;;16.50;45.35;103299.75;5052516;28;20132;-20
2023/04/03 05:15:05;;;;;;;3.47;2.13;;;;;;;16.42;46.67;103296.63;5047971;28;20448;-20
2023/04/03 05:17:31;;;;;;;4.18;2.03;;;;;;;16.36;46.88;103304.13;5051117;28;20393;-19
2023/04/03 05:19:58;;;;;;;4.40;2.30;;;;;;;16.29;46.55;103317.00;5052546;28;20099;-19
2023/04/03 05:22:24;;;;;;;4.40;2.05;;;;;;;16.24;47.20;103308.31;5054235;28;20519;-20
2023/04/03 05:24:51;;;;;;;3.90;2.47;;;;;;;16.21;47.14;103313.84;5053593;28;20056;-19
2023/04/03 05:27:17;;;;;;;4.50;2.60;;;;;;;16.22;46.72;103326.28;5047748;28;20440;-19
2023/04/03 05:29:44;;;;;;;3.47;2.35;;;;;;;16.29;46.77;103328.56;5038803;28;20052;-19
2023/04/03 05:32:11;;;;;;;3.45;2.00;;;;;;;16.39;46.84;103328.91;5052823;28;20463;-19
2023/04/03 05:34:38;;;;;;;5.32;3.03;;;;;;;16.51;46.10;103327.41;5053887;28;21075;-19
2023/04/03 05:37:05;;;;;;;4.53;2.35;;;;;;;16.63;46.87;103332.09;5050809;28;20045;-19
2023/04/03 05:39:32;;;;;;;3.90;2.42;;;;;;;16.74;46.36;103323.50;5054637;28;20045;-19
2023/04/03 05:41:59;;;;;;;5.75;2.72;;;;;;;16.85;46.13;103322.91;5051184;28;20437;-19
2023/04/03 05:44:26;;;;;;;5.53;2.90;;;;;;;16.97;45.90;103330.28;5050722;28;20055;-19
2023/04/03 05:46:52;;;;;;;4.45;2.20;;;;;;;17.09;45.62;103340.31;5052109;28;20049;-19
2023/04/03 05:49:19;;;;;;;5.05;2.88;;;;;;;17.20;45.94;103337.00;5053659;28;20492;-18
2023/04/03 05:51:46;;;;;;;4.90;2.38;;;;;;;17.31;45.50;103331.03;5049136;28;20136;-19
2023/04/03 05:54:17;;;;;;;6.22;2.47;;;;;;;17.42;45.05;103332.13;5053353;28;20052;-19
2023/04/03 05:56:45;;;;;;;4.32;2.42;;;;;;;17.50;45.12;103332.56;5052533;28;20044;-19
2023/04/03 05:59:11;;;;;;;4.00;2.38;;;;;;;17.57;45.11;103334.88;5050114;28;20140;-20
2023/04/03 06:01:38;;;;;;;4.25;2.42;;;;;;;17.61;45.34;103331.06;5051282;28;20190;-20
2023/04/03 06:04:04;;;;;;;4.00;2.30;;;;;;;17.65;45.11;103328.13;5051523;28;20137;-20
2023/04/03 06:06:45;;;;;;;4.20;2.47;;;;;;;17.64;45.42;103326.38;5051400;28;20041;-20
2023/04/03 06:09:11;;;;;;;6.40;2.70;;;;;;;17.66;45.66;103335.22;5051252;28;20053;-19
2023/04/03 06:11:38;;;;;;;4.55;2.67;;;;;;;17.64;45.37;103341.59;5052743;28;20409;-20
2023/04/03 06:14:05;;;;;;;4.20;2.80;;;;;;;17.64;45.35;103339.78;5048799;28;20055;-19
2023/04/03 06:16:32;;;;;;;4.05;2.20;;;;;;;17.63;45.79;103340.75;5051356;28;20061;-18
2023/04/03 06:18:58;;;;;;;4.28;2.42;;;;;;;17.65;45.57;103338.00;5050652;28;20060;-19
2023/04/03 06:21:26;;;;;;;5.03;2.58;;;;;;;17.64;45.62;103337.09;5050104;28;20056;-18
2023/04/03 06:23:52;;;;;;;4.38;2.40;;;;;;;17.66;45.55;103347.75;5049798;28;20305;-17
2023/04/03 06:26:19;;;;;;;4.82;2.53;;;;;;;17.65;45.12;103351.41;5050059;28;20078;-17
2023/04/03 06:28:45;;;;;;;8.77;2.45;;;;;;;17.67;44.96;103355.69;5048257;28;20075;-20
2023/04/03 06:31:12;;;;;;;6.25;2.85;;;;;;;17.68;45.26;103352.06;5047588;28;20467;-19
2023/04/03 06:33:38;;;;;;;4.38;2.35;;;;;;;17.71;44.84;103351.03;5052739;28;20455;-17
2023/04/03 06:36:06;;;;;;;4.95;2.08;;;;;;;17.74;44.62;103357.09;5050266;28;20427;-17
2023/04/03 06:38:33;;;;;;;5.90;2.70;;;;;;;17.78;44.82;103349.75;5044393;28;20053;-19
2023/04/03 06:41:00;;;;;;;4.75;2.30;;;;;;;17.82;44.96;103350.44;5048561;28;20045;-18
2023/04/03 06:43:27;;;;;;;3.80;2.28;;;;;;;17.85;44.28;103350.22;5046633;28;20147;-18
2023/04/03 06:45:53;;;;;;;4.95;2.42;;;;;;;17.87;44.06;103343.81;5049541;28;20045;-18
2023/04/03 06:48:20;;;;;;;4.50;2.08;;;;;;;17.91;43.61;103355.25;5051972;28;20059;-18
2023/04/03 06:50:47;;;;;;;4.57;2.08;;;;;;;17.92;43.61;103359.66;5049573;28;20444;-18
2023/04/03 06:53:14;;;;;;;3.85;2.20;;;;;;;17.94;43.08;103363.97;5046407;28;20051;-18
2023/04/03 06:55:41;;;;;;;4.28;2.30;;;;;;;17.97;43.12;103365.63;5050003;28;20380;-17
2023/04/03 06:58:07;;;;;;;4.88;2.47;;;;;;;17.97;43.13;103371.84;5048092;28;20156;-18
2023/04/03 07:00:34;;;;;;;3.30;1.90;;;;;;;17.97;43.17;103371.00;5049744;28;20056;-18
2023/04/03 07:03:01;;;;;;;3.83;2.08;;;;;;;17.97;43.20;103373.69;5048075;28;20124;-19
2023/04/03 07:05:28;;;;;;;4.68;1.95;;;;;;;17.98;42.98;103378.09;5045226;28;20547;-17
2023/04/03 07:07:54;;;;;;;3.63;1.98;;;;;;;17.96;42.79;103380.84;5051095;28;20053;-18
2023/04/03 07:10:21;;;;;;;4.07;1.88;;;;;;;17.93;42.76;103385.50;5048385;28;20440;-18
2023/04/03 07:12:47;;;;;;;3.72;2.08;;;;;;;17.88;43.01;103380.44;5042709;28;20080;-18
2023/04/03 07:15:14;;;;;;;5.00;2.22;;;;;;;17.86;43.00;103389.53;5045920;28;20049;-18
2023/04/03 07:17:41;;;;;;;4.72;2.03;;;;;;;17.81;42.79;103394.28;5051429;28;20395;-18
2023/04/03 07:20:08;;;;;;;4.20;1.95;;;;;;;17.79;43.35;103393.53;5047013;28;20049;-17
2023/04/03 07:22:35;;;;;;;3.53;1.98;;;;;;;17.75;42.79;103390.16;5047155;28;20089;-17
2023/04/03 07:25:02;;;;;;;4.15;2.45;;;;;;;17.74;43.20;103393.78;5046838;28;20053;-17
2023/04/03 07:27:29;;;;;;;2.95;1.70;;;;;;;17.73;42.69;103394.72;5046070;28;20053;-17
2023/04/03 07:29:56;;;;;;;5.60;1.92;;;;;;;17.68;42.88;103392.28;5037881;28;20049;-18
2023/04/03 07:32:22;;;;;;;2.33;1.60;;;;;;;17.65;43.03;103387.13;5049224;28;20140;-18
2023/04/03 07:34:49;;;;;;;4.90;2.05;;;;;;;17.63;42.71;103396.19;5048829;28;20318;-17
2023/04/03 07:37:17;;;;;;;3.50;1.75;;;;;;;17.62;43.39;103392.66;5051165;28;20067;-17
2023/04/03 07:39:44;;;;;;;3.08;1.80;;;;;;;17.60;43.30;103394.56;5047490;28;20361;-18
2023/04/03 07:42:12;;;;;;;4.63;1.70;;;;;;;17.58;43.40;103401.84;5050033;28;20595;-17
2023/04/03 07:44:38;;;;;;;4.15;1.98;;;;;;;17.56;43.69;103402.88;5046249;28;20045;-17
2023/04/03 07:47:05;;;;;;;3.63;1.90;;;;;;;17.54;43.85;103402.09;5049734;28;20045;-17
2023/04/03 07:49:32;;;;;;;3.38;1.95;;;;;;;17.52;43.61;103404.84;5049793;28;20049;-17
2023/04/03 07:51:59;;;;;;;4.22;1.65;;;;;;;17.51;43.94;103401.31;5050854;28;20168;-17
2023/04/03 07:54:26;;;;;;;4.82;1.60;;;;;;;17.52;43.75;103407.53;5049606;28;20098;-18
2023/04/03 07:56:52;;;;;;;5.25;2.10;;;;;;;17.54;43.68;103407.47;5048214;28;20049;-18
2023/04/03 07:59:19;;;;;;;2.97;1.65;;;;;;;17.54;43.74;103405.66;5046035;28;20738;-18
2023/04/03 08:01:46;;;;;;;3.20;1.92;;;;;;;17.56;43.83;103410.91;5050906;28;20045;-19
2023/04/03 08:04:12;;;;;;;4.13;1.48;;;;;;;17.58;43.71;103415.25;5049420;28;20349;-19
2023/04/03 08:06:39;;;;;;;4.28;1.70;;;;;;;17.59;43.82;103414.28;5048458;28;20060;-19
2023/04/03 08:09:15;;;;;;;3.80;1.63;;;;;;;17.63;43.39;103414.97;5046503;28;21194;-17
2023/04/03 08:11:42;;;;;;;2.22;1.38;;;;;;;17.64;43.89;103412.19;5046330;28;20144;-17
2023/04/03 08:14:15;;;;;;;3.00;1.40;;;;;;;17.66;43.97;103418.34;5043588;28;20049;-17
2023/04/03 08:16:43;;;;;;;3.58;1.58;;;;;;;17.69;43.92;103420.00;5041035;28;20063;-18
2023/04/03 08:19:11;;;;;;;3.58;1.33;;;;;;;17.72;43.62;103425.16;5040599;28;20392;-19
2023/04/03 08:21:51;;;;;;;4.22;1.88;;;;;;;17.76;43.94;103426.75;5042666;28;20055;-18
2023/04/03 08:24:17;;;;;;;2.72;1.17;;;;;;;17.80;43.47;103432.81;5047625;28;20360;-18
2023/04/03 08:26:44;;;;;;;2.70;1.48;;;;;;;17.81;43.46;103430.06;5041038;28;20045;-19
2023/04/03 08:29:11;;;;;;;3.50;1.30;;;;;;;17.86;43.36;103435.16;5047476;28;20456;-18
2023/04/03 08:31:37;;;;;;;4.57;1.60;;;;;;;17.88;43.23;103426.03;5044577;28;20407;-18
2023/04/03 08:34:05;;;;;;;4.47;1.55;;;;;;;17.92;43.07;103424.91;5047277;28;20384;-17
2023/04/03 08:36:31;;;;;;;2.60;1.40;;;;;;;17.97;43.18;103430.03;5040063;28;20049;-18
2023/04/03 08:38:58;;;;;;;2.25;1.50;;;;;;;18.00;43.13;103430.69;5047663;28;20053;-18
2023/04/03 08:41:30;;;;;;;6.38;1.45;;;;;;;18.05;42.64;103429.53;5049461;28;20333;-18
2023/04/03 08:44:10;;;;;;;2.92;1.38;;;;;;;18.08;42.50;103432.91;5049360;28;20045;-18
2023/04/03 08:47:02;;;;;;;4.53;1.30;;;;;;;18.13;42.54;103430.84;5045988;28;20165;-18
2023/04/03 08:49:37;;;;;;;2.33;1.10;;;;;;;18.16;42.50;103430.63;5046995;28;20517;-18
2023/04/03 08:52:11;;;;;;;2.65;1.30;;;;;;;18.21;42.65;103433.94;5046479;28;20345;-18
2023/04/03 08:54:49;;;;;;;3.00;1.73;;;;;;;18.24;42.29;103436.41;5042715;28;20048;-17
2023/04/03 08:57:28;;;;;;;1.77;0.98;;;;;;;18.29;42.48;103437.97;5049670;28;20464;-17
2023/04/03 08:59:57;;;;;;;5.03;1.20;;;;;;;18.34;42.47;103439.44;5045493;28;20052;-18
2023/04/03 09:02:46;;;;;;;2.80;1.23;;;;;;;18.38;41.95;103432.91;5046079;28;20056;-18
2023/04/03 09:05:35;;;;;;;1.73;1.20;;;;;;;18.43;42.44;103428.13;5045424;28;20223;-18
2023/04/03 09:08:26;;;;;;;3.67;1.05;;;;;;;18.47;42.33;103426.97;5043412;28;20059;-18
2023/04/03 09:11:13;;;;;;;3.67;1.30;;;;;;;18.52;42.60;103431.22;5045571;28;20051;-18
2023/04/03 09:13:52;;;;;;;2.38;1.10;;;;;;;18.58;42.33;103436.22;5046177;28;20053;-18
2023/04/03 09:16:30;;;;;;;3.78;1.30;;;;;;;18.63;42.29;103429.59;5043046;28;20061;-18
2023/04/03 09:19:31;;;;;;;3.17;1.35;;;;;;;18.68;42.19;103424.78;5034580;28;20099;-18
2023/04/03 09:22:23;;;;;;;2.78;0.90;;;;;;;18.74;41.91;103421.78;5039952;28;20140;-18
2023/04/03 09:25:04;;;;;;;5.00;1.40;;;;;;;18.81;42.07;103422.22;5039592;28;21534;-18
2023/04/03 09:27:31;;;;;;;3.10;1.15;;;;;;;18.85;42.47;103413.03;5045238;28;20064;-18
2023/04/03 09:29:58;;;;;;;2.17;0.98;;;;;;;18.90;42.10;103415.44;5040399;28;20045;-20
2023/04/03 09:32:30;;;;;;;2.78;0.90;;;;;;;18.96;42.10;103415.03;5043118;28;20131;-18
2023/04/03 09:35:34;;;;;;;2.53;1.10;;;;;;;19.01;41.79;103414.75;5041051;28;20127;-19
2023/04/03 09:38:13;;;;;;;1.77;0.80;;;;;;;19.10;42.03;103416.88;5044503;28;20510;-18
2023/04/03 09:40:50;;;;;;;1.80;1.00;;;;;;;19.15;42.09;103399.47;5043873;28;20103;-18
2023/04/03 09:43:22;;;;;;;1.67;0.90;;;;;;;19.22;42.11;103403.50;5042589;28;20083;-18
2023/04/03 09:45:50;;;;;;;4.18;1.10;;;;;;;19.29;41.68;103398.56;5043371;28;20543;-18
2023/04/03 09:48:21;;;;;;;1.95;0.90;;;;;;;19.35;41.18;103400.88;5044797;28;20049;-19
2023/04/03 09:50:52;;;;;;;3.33;1.33;;;;;;;19.40;41.16;103393.34;5049530;28;20045;-19
2023/04/03 09:53:30;;;;;;;4.05;1.30;;;;;;;19.46;41.59;103392.09;5044793;28;20159;-19
2023/04/03 09:55:59;;;;;;;1.92;1.10;;;;;;;19.52;41.49;103390.81;5046112;28;20052;-19
2023/04/03 09:58:40;;;;;;;2.13;1.25;;;;;;;19.59;40.54;103381.41;5044295;28;20063;-18
2023/04/03 10:01:40;;;;;;;2.55;1.00;;;;;;;19.65;41.16;103384.56;5039866;28;20425;-19
2023/04/03 10:04:16;;;;;;;1.50;0.90;;;;;;;19.72;40.25;103390.41;5045644;28;20135;-18
2023/04/03 10:06:49;;;;;;;2.75;1.00;;;;;;;19.77;40.47;103374.78;5047954;28;20075;-20
2023/04/03 10:09:22;;;;;;;2.40;0.80;;;;;;;19.82;40.59;103382.56;5045348;28;20045;-19
2023/04/03 10:12:01;;;;;;;2.90;0.80;;;;;;;19.87;40.83;103377.75;5044110;28;20045;-20
2023/04/03 10:14:29;;;;;;;4.35;1.00;;;;;;;19.94;40.42;103368.28;5047418;28;20571;-19
2023/04/03 10:17:18;;;;;;;2.33;1.05;;;;;;;20.00;40.39;103369.69;5047551;28;20063;-19
2023/04/03 10:19:59;;;;;;;3.05;1.00;;;;;;;20.04;40.11;103358.59;5048256;28;20045;-19
2023/04/03 10:23:00;;;;;;;1.50;0.70;;;;;;;20.10;39.93;103360.88;5051056;28;20056;-19
2023/04/03 10:25:48;;;;;;;1.55;0.82;;;;;;;20.17;40.09;103350.53;5048537;28;20048;-19
2023/04/03 10:28:30;;;;;;;1.73;0.80;;;;;;;20.21;39.53;103352.91;5044580;28;20160;-19
2023/04/03 10:31:23;;;;;;;1.48;0.70;;;;;;;20.27;39.63;103351.63;5042515;28;20056;-19
2023/04/03 10:33:56;;;;;;;2.45;0.95;;;;;;;20.32;40.01;103354.00;5046742;28;20528;-19
2023/04/03 10:36:35;;;;;;;2.65;0.90;;;;;;;20.37;39.44;103349.13;5043027;28;20135;-19
2023/04/03 10:39:33;;;;;;;2.92;0.90;;;;;;;20.39;39.67;103348.06;5041205;28;20037;-19
2023/04/03 10:42:11;;;;;;;1.88;0.80;;;;;;;20.45;39.39;103344.06;5051509;28;20045;-19
2023/04/03 10:44:49;;;;;;;1.02;0.82;;;;;;;20.50;39.33;103335.69;5049546;28;20128;-19
2023/04/03 10:47:15;;;;;;;1.85;1.33;;;;;;;20.54;39.09;103343.44;5047826;28;20139;-19
2023/04/03 10:49:49;;;;;;;1.45;0.60;;;;;;;20.57;38.88;103351.31;5050830;28;20499;-20
2023/04/03 10:52:42;;;;;;;2.58;0.80;;;;;;;20.61;38.86;103338.47;5050246;28;20053;-19
2023/04/03 10:55:34;;;;;;;3.20;0.80;;;;;;;20.66;38.72;103344.41;5050529;28;20476;-20
2023/04/03 10:58:02;;;;;;;1.95;0.90;;;;;;;20.69;39.44;103345.03;5051692;28;20041;-19
2023/04/03 11:00:39;;;;;;;2.72;0.85;;;;;;;20.73;38.52;103344.81;5044395;28;20072;-19
2023/04/03 11:03:37;;;;;;;2.22;1.08;;;;;;;20.76;38.96;103341.91;5046803;28;20052;-19
2023/04/03 11:06:09;;;;;;;1.10;0.77;;;;;;;20.80;38.82;103344.28;5049932;28;20045;-19
2023/04/03 11:09:00;;;;;;;1.25;0.70;;;;;;;20.83;39.01;103348.59;5048119;28;20068;-19
2023/04/03 11:11:35;;;;;;;0.90;0.60;;;;;;;20.86;38.49;103338.44;5048730;28;20072;-19
2023/04/03 11:14:08;;;;;;;2.03;0.88;;;;;;;20.88;38.45;103331.09;5046042;28;20053;-20
2023/04/03 11:16:41;;;;;;;4.00;0.90;;;;;;;20.91;38.72;103343.50;5040277;28;20060;-20
2023/04/03 11:19:31;;;;;;;;;;;;;;;20.91;37.78;103338.13;5044161;28;20651;-19
2023/04/03 11:22:08;;;;;;;1.48;0.90;;;;;;;20.94;38.00;103329.78;5043841;28;19964;-20
2023/04/03 11:24:39;;;;;;;3.60;0.68;;;;;;;20.94;37.88;103340.56;5050555;28;20223;-20
2023/04/03 11:27:16;;;;;;;4.20;1.40;;;;;;;20.94;37.88;103336.06;5046738;28;20045;-21
2023/04/03 11:29:46;;;;;;;2.95;1.08;;;;;;;20.94;38.20;103319.00;5046349;28;21456;-21
2023/04/03 11:32:24;;;;;;;1.40;0.77;;;;;;;20.94;37.80;103330.66;5047112;28;20057;-21
2023/04/03 11:34:58;;;;;;;2.28;1.20;;;;;;;20.97;37.59;103329.56;5040573;28;20140;-22
2023/04/03 11:37:24;;;;;;;2.45;1.30;;;;;;;20.97;37.84;103320.63;5038173;28;20049;-21